createdAt,value
2018-12-21T00:51:54.293Z,100347.70
2018-12-21T01:05:06.090Z,100328.16
2018-12-21T01:12:50.075Z,100321.09
2018-12-21T01:15:19.918Z,100329.02
2018-12-21T01:25:43.250Z,100327.84
2018-12-21T01:28:13.374Z,100326.55
2018-12-21T01:30:43.974Z,100336.05
2018-12-21T01:35:51.025Z,100323.54
2018-12-21T01:38:20.730Z,100321.46
2018-12-21T01:40:50.355Z,100315.73
2018-12-21T01:43:21.013Z,100309.11
2018-12-21T01:48:24.389Z,100307.16
2018-12-21T01:50:53.998Z,100306.79
2018-12-21T01:53:28.118Z,100318.70
2018-12-21T01:55:57.716Z,100305.33
2018-12-21T01:58:27.329Z,100304.72
2018-12-21T02:00:56.934Z,100294.16
2018-12-21T02:03:26.804Z,100296.11
2018-12-21T02:05:56.393Z,100291.30
2018-12-21T02:08:26.002Z,100285.78
2018-12-21T02:10:55.647Z,100282.97
2018-12-21T02:13:25.259Z,100271.72
2018-12-21T02:15:54.895Z,100275.62
2018-12-21T02:18:24.498Z,100267.16
2018-12-21T02:20:54.142Z,100263.46
2018-12-21T02:23:23.728Z,100264.27
2018-12-21T02:25:53.331Z,100255.54
2018-12-21T02:28:23.005Z,100252.20
2018-12-21T02:30:52.647Z,100247.61
2018-12-21T02:33:22.324Z,100242.65
2018-12-21T02:35:51.938Z,100238.62
2018-12-21T02:38:21.780Z,100250.13
2018-12-21T02:40:51.428Z,100245.33
2018-12-21T02:43:21.441Z,100229.27
2018-12-21T02:45:51.035Z,100229.32
2018-12-21T02:48:20.945Z,100228.75
2018-12-21T02:50:50.515Z,100220.49
2018-12-21T02:53:20.205Z,100216.95
2018-12-21T02:55:49.911Z,100211.84
2018-12-21T02:58:19.507Z,100209.55
2018-12-21T03:00:49.086Z,100210.45
2018-12-21T03:03:18.673Z,100212.61
2018-12-21T03:05:48.427Z,100204.79
2018-12-21T03:08:18.102Z,100194.84
2018-12-21T03:10:47.744Z,100192.25
2018-12-21T03:13:17.316Z,100187.97
2018-12-21T03:15:46.959Z,100186.22
2018-12-21T03:18:16.847Z,100175.34
2018-12-21T03:20:46.497Z,100160.58
2018-12-21T03:23:16.096Z,100158.06
2018-12-21T03:25:45.699Z,100149.85
2018-12-21T03:28:15.397Z,100146.85
2018-12-21T03:30:45.389Z,100132.50
2018-12-21T03:33:15.000Z,100128.86
2018-12-21T03:35:44.660Z,100126.21
2018-12-21T03:38:14.522Z,100126.13
2018-12-21T03:40:44.158Z,100117.64
2018-12-21T03:43:13.762Z,100101.81
2018-12-21T03:45:43.422Z,100092.30
2018-12-21T03:48:13.098Z,100082.38
2018-12-21T03:50:42.732Z,100087.73
2018-12-21T03:53:12.272Z,100086.28
2018-12-21T03:55:41.879Z,100082.53
2018-12-21T03:58:11.840Z,100064.72
2018-12-21T04:00:41.433Z,100072.78
2018-12-21T04:03:11.061Z,100068.20
2018-12-21T04:05:40.665Z,100060.31
2018-12-21T04:08:10.276Z,100054.58
2018-12-21T04:10:39.862Z,100061.66
2018-12-21T04:13:09.468Z,100050.48
2018-12-21T04:15:39.082Z,100050.79
2018-12-21T04:18:08.747Z,100043.83
2018-12-21T04:20:38.349Z,100042.89
2018-12-21T04:23:08.265Z,100044.34
2018-12-21T04:25:37.851Z,100023.37
2018-12-21T04:28:07.444Z,100013.95
2018-12-21T04:30:37.069Z,100007.39
2018-12-21T04:33:06.922Z,99991.69
2018-12-21T04:35:36.610Z,99991.95
2018-12-21T04:38:06.326Z,99980.52
2018-12-21T04:40:35.959Z,99976.69
2018-12-21T04:43:05.570Z,99972.78
2018-12-21T04:45:35.231Z,99966.98
2018-12-21T04:48:04.817Z,99959.94
2018-12-21T04:50:34.417Z,99943.02
2018-12-21T04:53:04.005Z,99933.99
2018-12-21T04:55:33.622Z,99936.73
2018-12-21T04:58:03.307Z,99929.15
2018-12-21T05:00:32.942Z,99919.22
2018-12-21T05:03:02.518Z,99914.70
2018-12-21T05:05:32.153Z,99920.58
2018-12-21T05:08:01.751Z,99914.23
2018-12-21T05:10:31.406Z,99906.27
2018-12-21T05:13:01.417Z,99913.69
2018-12-21T05:15:31.313Z,99910.78
2018-12-21T05:18:00.914Z,99909.87
2018-12-21T05:20:30.781Z,99902.52
2018-12-21T05:23:00.722Z,99888.80
2018-12-21T05:25:30.322Z,99894.86
2018-12-21T05:27:59.960Z,99887.34
2018-12-21T05:30:29.579Z,99878.94
2018-12-21T05:32:59.381Z,99879.33
2018-12-21T05:35:28.986Z,99867.91
2018-12-21T05:37:58.616Z,99868.46
2018-12-21T05:40:28.201Z,99847.00
2018-12-21T05:42:57.796Z,99843.09
2018-12-21T05:45:27.491Z,99849.00
2018-12-21T05:47:57.094Z,99843.03
2018-12-21T05:50:26.688Z,99840.52
2018-12-21T05:53:00.770Z,99828.27
2018-12-21T05:55:27.958Z,99818.40
2018-12-21T05:57:58.376Z,99812.89
2018-12-21T16:13:50.919Z,99370.53
2018-12-21T16:16:22.405Z,99376.02
2018-12-21T17:23:07.513Z,99481.56
2018-12-21T17:36:40.335Z,99516.57
2018-12-21T17:44:51.899Z,99522.33
2018-12-21T17:47:25.767Z,99518.14
2018-12-21T17:58:31.440Z,99553.24
2018-12-21T18:04:21.514Z,99556.61
2018-12-21T18:07:00.978Z,99554.17
2018-12-21T18:10:01.909Z,99568.09
2018-12-21T18:12:51.833Z,99560.91
2018-12-21T18:22:01.708Z,99573.98
2018-12-21T18:24:36.526Z,99567.45
2018-12-21T18:36:59.101Z,99584.19
2018-12-21T18:51:13.980Z,99599.83
2018-12-21T18:54:05.328Z,99616.54
2018-12-21T18:56:47.349Z,99604.39
2018-12-21T18:59:37.091Z,99603.20
2018-12-21T19:02:21.016Z,99608.31
2018-12-21T19:04:59.837Z,99623.64
2018-12-21T19:10:47.997Z,99635.11
2018-12-21T19:16:08.421Z,99642.87
2018-12-21T19:18:38.635Z,99652.48
2018-12-21T19:21:09.218Z,99649.40
2018-12-21T19:23:39.277Z,99671.44
2018-12-21T19:26:15.304Z,99653.52
2018-12-21T19:34:09.276Z,99662.41
2018-12-21T19:36:47.473Z,99668.19
2018-12-21T19:41:59.727Z,99679.15
2018-12-21T19:47:11.344Z,99689.59
2018-12-21T19:49:42.279Z,99692.01
2018-12-21T19:54:50.893Z,99692.78
2018-12-21T19:57:22.594Z,99704.20
2018-12-21T20:02:30.562Z,99710.55
2018-12-21T20:05:01.204Z,99722.36
2018-12-21T20:07:36.815Z,99729.81
2018-12-21T20:10:15.878Z,99730.00
2018-12-21T20:12:53.676Z,99731.31
2018-12-21T20:15:26.508Z,99742.73
2018-12-21T20:17:56.188Z,99745.25
2018-12-21T20:20:26.711Z,99744.16
2018-12-21T20:22:57.643Z,99739.58
2018-12-21T20:25:38.799Z,99740.53
2018-12-21T20:31:10.656Z,99742.85
2018-12-21T20:33:44.137Z,99738.58
2018-12-21T20:42:08.540Z,99764.03
2018-12-21T20:44:44.971Z,99756.00
2018-12-21T20:56:48.852Z,99773.92
2018-12-21T20:59:29.349Z,99769.00
2018-12-21T21:01:59.001Z,99770.49
2018-12-21T21:07:15.089Z,99757.51
2018-12-21T21:12:42.508Z,99785.22
2018-12-21T21:15:32.847Z,99806.89
2018-12-21T21:18:02.752Z,99791.11
2018-12-21T21:20:34.423Z,99802.20
2018-12-21T21:26:00.999Z,99794.20
2018-12-21T21:28:32.459Z,99801.66
2018-12-21T21:31:04.729Z,99804.27
2018-12-21T21:33:39.150Z,99806.60
2018-12-21T21:36:12.226Z,99806.44
2018-12-21T21:38:45.138Z,99801.76
2018-12-21T21:41:19.364Z,99814.05
2018-12-21T21:43:49.962Z,99807.34
2018-12-21T21:46:26.522Z,99802.79
2018-12-21T21:48:58.533Z,99808.30
2018-12-21T21:51:28.580Z,99804.38
2018-12-21T21:56:46.486Z,99800.16
2018-12-21T21:59:19.676Z,99820.04
2018-12-21T22:01:50.200Z,99813.78
2018-12-21T22:04:29.683Z,99819.39
2018-12-21T22:07:00.210Z,99820.33
2018-12-21T22:09:37.316Z,99822.67
2018-12-21T22:12:09.148Z,99827.59
2018-12-21T22:14:38.808Z,99835.73
2018-12-21T22:17:13.145Z,99838.98
2018-12-21T22:19:43.494Z,99848.42
2018-12-21T22:22:13.677Z,99846.27
2018-12-21T22:24:48.721Z,99851.42
2018-12-21T22:27:19.481Z,99858.87
2018-12-21T22:29:49.497Z,99871.30
2018-12-21T22:32:37.042Z,99864.28
2018-12-21T22:35:09.094Z,99872.43
2018-12-21T22:40:13.699Z,99866.08
2018-12-21T22:45:26.989Z,99870.16
2018-12-21T22:47:56.982Z,99877.08
2018-12-21T22:50:34.916Z,99884.16
2018-12-21T22:53:09.731Z,99879.59
2018-12-21T22:58:20.319Z,99877.16
2018-12-21T23:00:51.592Z,99886.33
2018-12-21T23:03:28.659Z,99891.45
2018-12-21T23:05:58.490Z,99910.95
2018-12-21T23:08:33.518Z,99901.53
2018-12-21T23:11:07.013Z,99907.86
2018-12-21T23:13:36.635Z,99907.22
2018-12-21T23:16:06.433Z,99908.03
2018-12-21T23:18:36.023Z,99909.72
2018-12-21T23:21:08.105Z,99908.52
2018-12-21T23:23:38.072Z,99901.89
2018-12-21T23:26:08.778Z,99907.50
2018-12-21T23:28:38.376Z,99906.47
2018-12-21T23:31:12.318Z,99914.20
2018-12-21T23:33:45.405Z,99908.63
2018-12-21T23:36:15.969Z,99916.19
2018-12-21T23:38:46.484Z,99908.45
2018-12-21T23:41:17.241Z,99909.16
2018-12-21T23:43:50.637Z,99910.11
2018-12-21T23:46:27.253Z,99907.22
2018-12-21T23:48:58.614Z,99910.67
2018-12-21T23:51:30.267Z,99916.47
2018-12-21T23:54:00.967Z,99904.24
2018-12-21T23:56:35.162Z,99909.65
2018-12-21T23:59:11.365Z,99917.48
